createdAt,value
2023-03-13T00:02:19.646Z,3.52
2023-03-13T00:05:25.735Z,3.52
2023-03-13T00:08:33.171Z,3.50
2023-03-13T00:11:39.254Z,3.48
2023-03-13T00:14:44.972Z,3.48
2023-03-13T00:17:50.875Z,3.47
2023-03-13T00:21:02.652Z,3.48
2023-03-13T00:24:11.516Z,3.48
2023-03-13T00:27:17.829Z,3.49
2023-03-13T00:30:22.149Z,3.50
2023-03-13T00:33:28.006Z,3.48
2023-03-13T00:36:35.907Z,3.47
2023-03-13T00:39:41.768Z,3.46
2023-03-13T00:42:47.724Z,3.48
2023-03-13T00:45:53.632Z,3.49
2023-03-13T00:48:59.538Z,3.49
2023-03-13T00:52:05.500Z,3.50
2023-03-13T00:55:12.647Z,3.50
2023-03-13T00:58:18.647Z,3.52
2023-03-13T01:01:26.347Z,3.56
2023-03-13T01:04:32.103Z,3.62
2023-03-13T01:07:38.032Z,3.70
2023-03-13T01:10:43.774Z,3.74
2023-03-13T01:13:50.573Z,3.76
2023-03-13T01:16:56.479Z,3.75
2023-03-13T01:20:02.434Z,3.74
2023-03-13T01:23:09.021Z,3.74
2023-03-13T01:26:15.204Z,3.73
2023-03-13T01:29:21.018Z,3.71
2023-03-13T01:32:26.906Z,3.70
2023-03-13T01:35:32.742Z,3.70
2023-03-13T01:38:39.050Z,3.69
2023-03-13T01:41:43.213Z,3.70
2023-03-13T01:44:56.239Z,3.70
2023-03-13T01:48:02.119Z,3.70
2023-03-13T01:51:13.208Z,3.72
2023-03-13T01:54:23.043Z,3.74
2023-03-13T01:57:32.224Z,3.77
2023-03-13T02:00:42.689Z,3.84
2023-03-13T02:03:50.244Z,3.88
2023-03-13T02:06:59.573Z,3.91
2023-03-13T02:10:06.220Z,3.93
2023-03-13T02:13:15.357Z,3.94
2023-03-13T02:16:22.588Z,3.94
2023-03-13T02:19:35.880Z,3.91
2023-03-13T02:22:52.082Z,3.91
2023-03-13T02:25:56.325Z,3.94
2023-03-13T02:29:02.373Z,3.96
2023-03-13T02:32:10.570Z,3.99
2023-03-13T02:35:18.841Z,4.04
2023-03-13T02:38:28.529Z,4.09
2023-03-13T02:41:36.242Z,4.13
2023-03-13T02:44:42.906Z,4.17
2023-03-13T02:47:48.759Z,4.20
2023-03-13T02:50:54.622Z,4.22
2023-03-13T02:54:03.357Z,4.24
2023-03-13T02:57:09.539Z,4.25
2023-03-13T03:00:17.350Z,4.26
2023-03-13T03:03:23.176Z,4.27
2023-03-13T03:06:29.135Z,4.28
2023-03-13T03:09:34.990Z,4.29
2023-03-13T03:12:40.849Z,4.31
2023-03-13T03:15:46.701Z,4.34
2023-03-13T03:18:52.572Z,4.37
2023-03-13T03:21:58.354Z,4.40
2023-03-13T03:25:04.884Z,4.45
2023-03-13T03:28:10.838Z,4.47
2023-03-13T03:31:18.226Z,4.48
2023-03-13T03:34:24.532Z,4.50
2023-03-13T03:37:30.352Z,4.51
2023-03-13T03:40:36.209Z,4.52
2023-03-13T03:43:42.415Z,4.52
2023-03-13T03:46:48.273Z,4.54
2023-03-13T03:49:54.396Z,4.55
2023-03-13T03:53:00.250Z,4.57
2023-03-13T03:56:07.453Z,4.58
2023-03-13T03:59:13.300Z,4.60
2023-03-13T04:02:19.189Z,4.61
2023-03-13T04:05:25.216Z,4.64
2023-03-13T04:08:31.484Z,4.67
2023-03-13T04:11:37.444Z,4.69
2023-03-13T04:14:43.220Z,4.70
2023-03-13T04:17:48.954Z,4.72
2023-03-13T04:21:03.565Z,4.72
2023-03-13T04:24:10.606Z,4.72
2023-03-13T04:27:16.480Z,4.71
2023-03-13T04:30:22.238Z,4.71
2023-03-13T04:33:28.372Z,4.71
2023-03-13T04:36:34.118Z,4.73
2023-03-13T04:39:39.882Z,4.75
2023-03-13T04:42:45.736Z,4.78
2023-03-13T04:45:54.729Z,4.80
2023-03-13T04:49:00.659Z,4.82
2023-03-13T04:52:07.147Z,4.83
2023-03-13T04:55:13.469Z,4.84
2023-03-13T04:58:17.793Z,4.84
2023-03-13T05:01:23.888Z,4.84
2023-03-13T05:04:29.904Z,4.85
2023-03-13T05:07:35.780Z,4.84
2023-03-13T05:10:43.059Z,4.86
2023-03-13T05:13:48.859Z,4.88
2023-03-13T05:16:54.665Z,4.91
2023-03-13T05:20:00.419Z,4.95
2023-03-13T05:23:06.181Z,4.98
2023-03-13T05:26:12.339Z,5.00
2023-03-13T05:29:18.298Z,5.04
2023-03-13T05:32:24.302Z,5.08
2023-03-13T05:35:30.416Z,5.12
2023-03-13T05:38:36.312Z,5.16
2023-03-13T05:41:42.136Z,5.20
2023-03-13T05:44:47.879Z,5.25
2023-03-13T05:47:53.863Z,5.31
2023-03-13T05:50:59.707Z,5.35
2023-03-13T05:54:05.896Z,5.40
2023-03-13T05:57:11.726Z,5.44
2023-03-13T06:00:19.777Z,5.48
2023-03-13T06:03:25.541Z,5.53
2023-03-13T06:06:31.538Z,5.57
2023-03-13T06:09:37.395Z,5.60
2023-03-13T06:12:43.250Z,5.63
2023-03-13T06:15:55.513Z,5.67
2023-03-13T06:19:02.444Z,5.70
2023-03-13T06:22:08.499Z,5.74
2023-03-13T06:25:14.971Z,5.78
2023-03-13T06:28:21.049Z,5.83
2023-03-13T06:31:26.840Z,5.90
2023-03-13T06:34:32.950Z,5.96
2023-03-13T06:37:39.038Z,6.02
2023-03-13T06:40:46.403Z,6.05
2023-03-13T06:43:53.696Z,6.09
2023-03-13T06:46:59.624Z,6.14
2023-03-13T06:50:06.080Z,6.20
2023-03-13T06:53:15.442Z,6.27
2023-03-13T06:56:22.128Z,6.34
2023-03-13T06:59:28.288Z,6.43
2023-03-13T07:02:34.172Z,6.53
2023-03-13T07:05:40.020Z,6.63
2023-03-13T07:08:46.002Z,6.73
2023-03-13T07:11:51.729Z,6.84
2023-03-13T07:14:57.485Z,6.97
2023-03-13T07:18:03.228Z,7.07
2023-03-13T07:21:10.970Z,7.19
2023-03-13T07:24:16.970Z,7.29
2023-03-13T07:27:23.333Z,7.38
2023-03-13T07:30:27.626Z,7.44
2023-03-13T07:33:33.549Z,7.50
2023-03-13T07:36:41.660Z,7.56
2023-03-13T07:39:47.725Z,7.63
2023-03-13T07:42:53.581Z,7.73
2023-03-13T07:46:01.573Z,7.84
2023-03-13T07:49:07.384Z,7.94
2023-03-13T07:52:13.127Z,8.04
2023-03-13T07:55:19.177Z,8.13
2023-03-13T07:58:25.863Z,8.22
2023-03-13T08:01:31.891Z,8.29
2023-03-13T08:04:37.645Z,8.38
2023-03-13T08:07:45.289Z,8.50
2023-03-13T08:10:51.024Z,8.64
2023-03-13T08:13:57.947Z,8.80
2023-03-13T08:17:03.963Z,8.96
2023-03-13T08:20:12.418Z,9.12
2023-03-13T08:23:18.310Z,9.26
2023-03-13T08:26:26.430Z,9.36
2023-03-13T08:29:32.274Z,9.44
2023-03-13T08:32:38.517Z,9.53
2023-03-13T08:35:44.714Z,9.58
2023-03-13T08:38:50.902Z,9.63
2023-03-13T08:41:56.827Z,9.68
2023-03-13T08:45:02.586Z,9.72
2023-03-13T08:48:09.139Z,9.81
2023-03-13T08:51:16.433Z,9.90
2023-03-13T08:54:22.408Z,9.95
2023-03-13T08:57:28.380Z,10.03
2023-03-13T09:00:34.211Z,10.07
2023-03-13T09:03:40.798Z,10.10
2023-03-13T09:06:46.861Z,10.15
2023-03-13T09:09:52.828Z,10.24
2023-03-13T09:12:58.845Z,10.32
2023-03-13T09:16:08.431Z,10.39
2023-03-13T09:19:14.485Z,10.47
2023-03-13T09:22:20.445Z,10.54
2023-03-13T09:25:26.305Z,10.59
2023-03-13T09:28:32.271Z,10.66
2023-03-13T09:31:38.930Z,10.78
2023-03-13T09:34:44.892Z,10.90
2023-03-13T09:37:50.742Z,11.02
2023-03-13T09:41:06.178Z,11.10
2023-03-13T09:44:20.382Z,11.20
2023-03-13T09:47:31.425Z,11.29
2023-03-13T09:50:41.927Z,11.40
2023-03-13T09:53:53.109Z,11.50
2023-03-13T09:57:02.240Z,11.62
2023-03-13T10:00:13.653Z,11.75
2023-03-13T10:03:25.027Z,11.88
2023-03-13T10:06:34.655Z,12.01
2023-03-13T10:09:42.468Z,12.14
2023-03-13T10:12:54.170Z,12.27
2023-03-13T10:16:03.154Z,12.33
2023-03-13T10:19:16.821Z,12.37
2023-03-13T10:22:26.773Z,12.46
2023-03-13T10:25:35.935Z,12.58
2023-03-13T10:28:41.763Z,12.64
2023-03-13T10:31:54.956Z,12.74
2023-03-13T10:35:03.391Z,12.84
2023-03-13T10:38:13.665Z,12.95
2023-03-13T10:41:28.028Z,13.00
2023-03-13T10:44:35.500Z,13.10
2023-03-13T10:47:41.324Z,13.24
2023-03-13T10:50:49.927Z,13.36
2023-03-13T10:53:56.058Z,13.45
2023-03-13T10:57:25.870Z,13.44
2023-03-13T11:00:38.817Z,13.39
2023-03-13T11:03:45.581Z,13.41
2023-03-13T11:06:59.431Z,13.49
2023-03-13T11:10:19.941Z,13.53
2023-03-13T11:13:37.330Z,13.57
2023-03-13T11:16:50.550Z,13.57
2023-03-13T11:20:16.183Z,13.59
2023-03-13T11:23:29.128Z,13.56
2023-03-13T11:26:39.446Z,13.57
2023-03-13T11:29:56.322Z,13.59
2023-03-13T11:33:06.134Z,13.63
2023-03-13T11:36:20.267Z,13.71
2023-03-13T11:39:56.671Z,13.72
2023-03-13T11:43:25.589Z,13.71
2023-03-13T11:46:45.638Z,13.72
2023-03-13T11:50:02.381Z,13.79
2023-03-13T11:53:22.487Z,13.87
2023-03-13T11:56:33.948Z,13.94
2023-03-13T11:59:47.083Z,13.96
2023-03-13T12:02:58.359Z,13.91
2023-03-13T12:06:13.260Z,13.89
2023-03-13T12:09:30.319Z,13.83
2023-03-13T12:12:41.867Z,13.75
2023-03-13T12:15:52.016Z,13.67
2023-03-13T12:18:58.862Z,13.59
2023-03-13T12:22:15.593Z,13.49
2023-03-13T12:25:25.529Z,13.41
2023-03-13T12:28:39.682Z,13.37
2023-03-13T12:31:54.666Z,13.34
2023-03-13T12:35:16.707Z,13.30
2023-03-13T12:38:27.779Z,13.26
2023-03-13T12:41:42.106Z,13.22
2023-03-13T12:44:48.693Z,13.17
2023-03-13T12:48:21.779Z,13.13
2023-03-13T12:51:41.334Z,13.11
2023-03-13T12:55:00.760Z,13.11
2023-03-13T12:58:31.088Z,13.11
2023-03-13T13:01:42.248Z,13.11
2023-03-13T13:04:50.954Z,13.11
2023-03-13T13:07:58.244Z,13.15
2023-03-13T13:11:34.765Z,13.22
2023-03-13T13:14:59.204Z,13.27
2023-03-13T13:18:16.176Z,13.30
2023-03-13T13:21:27.689Z,13.33
2023-03-13T13:24:52.743Z,13.35
2023-03-13T13:28:11.927Z,13.34
2023-03-13T13:31:59.544Z,13.32
2023-03-13T13:35:19.653Z,13.31
2023-03-13T13:38:52.857Z,13.30
2023-03-13T13:41:58.912Z,13.27
2023-03-13T13:45:08.069Z,13.26
2023-03-13T13:48:30.397Z,13.26
2023-03-13T13:51:37.375Z,13.25
2023-03-13T13:54:57.728Z,13.25
2023-03-13T13:58:06.126Z,13.24
2023-03-13T14:01:19.100Z,13.22
2023-03-13T14:04:29.633Z,13.20
2023-03-13T14:07:52.138Z,13.20
2023-03-13T14:11:11.373Z,13.20
2023-03-13T14:14:20.189Z,13.18
2023-03-13T14:17:25.937Z,13.17
2023-03-13T14:20:35.426Z,13.14
2023-03-13T14:23:43.602Z,13.06
2023-03-13T14:26:49.309Z,12.96
2023-03-13T14:30:05.493Z,12.84
2023-03-13T14:33:11.650Z,12.69
2023-03-13T14:36:15.877Z,12.56
2023-03-13T14:39:36.983Z,12.42
2023-03-13T14:42:47.881Z,12.24
2023-03-13T14:45:53.960Z,12.06
2023-03-13T14:48:58.731Z,11.91
2023-03-13T14:52:07.270Z,11.80
2023-03-13T14:55:33.809Z,11.72
2023-03-13T14:58:40.017Z,11.68
2023-03-13T15:01:47.168Z,11.65
2023-03-13T15:04:59.756Z,11.61
2023-03-13T15:08:05.836Z,11.55
2023-03-13T15:11:26.253Z,11.49
2023-03-13T15:14:41.512Z,11.43
2023-03-13T15:17:47.376Z,11.36
2023-03-13T15:20:55.026Z,11.31
2023-03-13T15:24:03.372Z,11.27
2023-03-13T15:27:16.983Z,11.23
2023-03-13T15:30:24.276Z,11.19
2023-03-13T15:33:31.798Z,11.15
2023-03-13T15:36:37.766Z,11.10
2023-03-13T15:39:43.827Z,11.06
2023-03-13T15:42:49.789Z,11.02
2023-03-13T15:45:55.936Z,10.97
2023-03-13T15:49:00.168Z,10.93
2023-03-13T15:52:12.785Z,10.89
2023-03-13T15:55:18.756Z,10.84
2023-03-13T15:58:25.909Z,10.79
2023-03-13T16:01:31.824Z,10.75
2023-03-13T16:04:40.013Z,10.68
2023-03-13T16:07:46.172Z,10.59
2023-03-13T16:10:52.847Z,10.49
2023-03-13T16:13:59.149Z,10.42
2023-03-13T16:17:12.131Z,10.37
2023-03-13T16:20:22.133Z,10.32
2023-03-13T16:23:27.967Z,10.29
2023-03-13T16:26:34.308Z,10.26
2023-03-13T16:29:40.167Z,10.23
2023-03-13T16:32:46.191Z,10.21
2023-03-13T16:35:54.660Z,10.20
2023-03-13T16:39:01.670Z,10.19
2023-03-13T16:42:07.894Z,10.19
2023-03-13T16:45:13.372Z,10.21
2023-03-13T16:48:20.418Z,10.23
2023-03-13T16:51:28.352Z,10.24
2023-03-13T16:54:34.114Z,10.26
2023-03-13T16:57:40.290Z,10.29
2023-03-13T17:00:56.223Z,10.30
2023-03-13T17:04:08.954Z,10.29
2023-03-13T17:07:17.909Z,10.27
2023-03-13T17:10:26.409Z,10.28
2023-03-13T17:13:32.370Z,10.30
2023-03-13T17:16:40.780Z,10.31
2023-03-13T17:19:47.229Z,10.31
2023-03-13T17:22:53.410Z,10.31
2023-03-13T17:25:58.628Z,10.32
2023-03-13T17:29:06.082Z,10.33
2023-03-13T17:32:13.521Z,10.33
2023-03-13T17:35:21.042Z,10.30
2023-03-13T17:38:27.139Z,10.26
2023-03-13T17:41:35.370Z,10.23
2023-03-13T17:44:41.791Z,10.22
2023-03-13T17:47:49.257Z,10.19
2023-03-13T17:50:55.136Z,10.15
2023-03-13T17:54:01.278Z,10.13
2023-03-13T17:57:14.998Z,10.16
2023-03-13T18:00:29.021Z,10.20
2023-03-13T18:03:34.846Z,10.23
2023-03-13T18:06:43.594Z,10.30
2023-03-13T18:09:49.433Z,10.38
2023-03-13T18:12:55.820Z,10.45
2023-03-13T18:16:01.600Z,10.55
2023-03-13T18:19:09.430Z,10.62
2023-03-13T18:22:18.255Z,10.70
2023-03-13T18:25:23.997Z,10.76
2023-03-13T18:28:29.964Z,10.83
2023-03-13T18:31:37.279Z,10.89
2023-03-13T18:34:43.560Z,10.94
2023-03-13T18:37:50.532Z,10.95
2023-03-13T18:40:56.286Z,10.95
2023-03-13T18:44:02.971Z,10.95
2023-03-13T18:47:14.777Z,10.96
2023-03-13T18:50:26.206Z,10.99
2023-03-13T18:53:32.114Z,11.00
2023-03-13T18:56:38.373Z,11.03
2023-03-13T18:59:42.749Z,11.06
2023-03-13T19:02:49.577Z,11.09
2023-03-13T19:05:55.635Z,11.10
2023-03-13T19:09:05.541Z,11.11
2023-03-13T19:12:15.712Z,11.15
2023-03-13T19:15:24.578Z,11.18
2023-03-13T19:18:30.536Z,11.21
2023-03-13T19:34:14.752Z,11.52
2023-03-13T19:37:20.801Z,11.61
2023-03-13T19:40:28.826Z,11.61
2023-03-13T19:43:34.591Z,11.59
2023-03-13T19:46:43.457Z,11.58
2023-03-13T19:49:52.228Z,11.57
2023-03-13T19:52:58.272Z,11.54
2023-03-13T19:56:06.969Z,11.53
2023-03-13T19:59:18.196Z,11.57
2023-03-13T20:02:24.269Z,11.55
2023-03-13T20:05:28.540Z,11.52
2023-03-13T20:08:34.497Z,11.50
2023-03-13T20:11:40.682Z,11.46
2023-03-13T20:14:44.832Z,11.40
2023-03-13T20:17:50.758Z,11.36
2023-03-13T20:20:56.651Z,11.35
2023-03-13T20:24:03.248Z,11.34
2023-03-13T20:27:09.259Z,11.33
2023-03-13T20:30:16.228Z,11.32
2023-03-13T20:33:22.067Z,11.27
2023-03-13T20:36:28.672Z,11.20
2023-03-13T20:39:35.608Z,11.15
2023-03-13T20:42:42.226Z,11.10
2023-03-13T20:45:48.734Z,11.10
2023-03-13T20:48:55.181Z,11.02
2023-03-13T20:52:01.638Z,10.91
2023-03-13T20:55:09.120Z,10.82
2023-03-13T20:58:14.981Z,10.71
2023-03-13T21:01:22.353Z,10.67
2023-03-13T21:04:28.493Z,10.59
2023-03-13T21:07:35.012Z,10.50
2023-03-13T21:10:41.584Z,10.45
2023-03-13T21:13:47.813Z,10.40
2023-03-13T21:16:51.994Z,10.48
2023-03-13T21:19:57.924Z,10.50
2023-03-13T21:23:03.778Z,10.45
2023-03-13T21:26:09.974Z,10.38
2023-03-13T21:29:14.481Z,10.32
2023-03-13T21:32:20.898Z,10.23
2023-03-13T21:35:27.292Z,10.17
2023-03-13T21:38:33.270Z,10.13
2023-03-13T21:41:39.159Z,10.09
2023-03-13T21:44:45.697Z,10.06
2023-03-13T21:47:51.489Z,10.02
2023-03-13T21:50:57.411Z,9.98
2023-03-13T21:54:03.268Z,9.95
2023-03-13T21:57:09.026Z,9.89
2023-03-13T22:00:16.696Z,9.81
2023-03-13T22:03:22.475Z,9.75
2023-03-13T22:06:28.394Z,9.68
2023-03-13T22:09:34.291Z,9.62
2023-03-13T22:12:40.177Z,9.58
2023-03-13T22:15:46.904Z,9.55
2023-03-13T22:18:52.940Z,9.52
2023-03-13T22:21:58.666Z,9.48
2023-03-13T22:25:04.749Z,9.46
2023-03-13T22:28:11.685Z,9.42
2023-03-13T22:31:18.576Z,9.38
2023-03-13T22:34:24.344Z,9.33
2023-03-13T22:37:30.284Z,9.28
2023-03-13T22:40:36.746Z,9.22
2023-03-13T22:43:42.480Z,9.19
2023-03-13T22:46:48.357Z,9.17
2023-03-13T22:49:55.044Z,9.13
2023-03-13T22:53:00.994Z,9.13
2023-03-13T22:56:10.003Z,9.10
2023-03-13T22:59:16.048Z,9.10
2023-03-13T23:02:21.975Z,9.13
2023-03-13T23:05:27.896Z,9.15
2023-03-13T23:08:33.759Z,9.17
2023-03-13T23:11:40.058Z,9.17
2023-03-13T23:14:44.250Z,9.15
2023-03-13T23:17:50.410Z,9.12
2023-03-13T23:20:56.881Z,9.08
2023-03-13T23:24:02.642Z,9.09
2023-03-13T23:27:08.498Z,9.12
2023-03-13T23:30:16.686Z,9.06
2023-03-13T23:33:22.862Z,8.97
2023-03-13T23:36:27.392Z,8.90
2023-03-13T23:39:33.141Z,8.87
2023-03-13T23:42:39.108Z,8.87
2023-03-13T23:45:45.064Z,8.86
2023-03-13T23:48:52.916Z,8.85
2023-03-13T23:51:58.698Z,8.80
2023-03-13T23:55:05.552Z,8.77
2023-03-13T23:58:11.321Z,8.75
